sensor_id;sensor_type;location;lat;lon;timestamp;temperature;humidity
2190;DHT22;1101;51.056;7.262;2023-03-11T00:01:24;0.80;99.90
2190;DHT22;1101;51.056;7.262;2023-03-11T00:03:52;0.80;99.90
2190;DHT22;1101;51.056;7.262;2023-03-11T00:06:21;0.80;99.90
2190;DHT22;1101;51.056;7.262;2023-03-11T00:08:48;0.80;99.90
2190;DHT22;1101;51.056;7.262;2023-03-11T00:11:17;0.80;99.90
2190;DHT22;1101;51.056;7.262;2023-03-11T00:13:47;0.80;99.90
2190;DHT22;1101;51.056;7.262;2023-03-11T00:16:15;0.90;99.90
2190;DHT22;1101;51.056;7.262;2023-03-11T00:18:43;0.80;99.90
2190;DHT22;1101;51.056;7.262;2023-03-11T00:21:14;0.90;99.90
2190;DHT22;1101;51.056;7.262;2023-03-11T00:23:44;0.90;99.90
2190;DHT22;1101;51.056;7.262;2023-03-11T00:26:12;0.90;99.90
2190;DHT22;1101;51.056;7.262;2023-03-11T00:28:39;0.90;99.90
2190;DHT22;1101;51.056;7.262;2023-03-11T00:31:07;0.90;99.90
2190;DHT22;1101;51.056;7.262;2023-03-11T00:33:35;0.90;99.90
2190;DHT22;1101;51.056;7.262;2023-03-11T00:36:04;0.90;99.90
2190;DHT22;1101;51.056;7.262;2023-03-11T00:38:32;0.90;99.90
2190;DHT22;1101;51.056;7.262;2023-03-11T00:41:01;0.90;99.90
2190;DHT22;1101;51.056;7.262;2023-03-11T00:43:29;0.90;99.90
2190;DHT22;1101;51.056;7.262;2023-03-11T00:45:57;0.90;99.90
2190;DHT22;1101;51.056;7.262;2023-03-11T00:48:24;0.90;99.90
2190;DHT22;1101;51.056;7.262;2023-03-11T00:50:52;0.90;99.90
2190;DHT22;1101;51.056;7.262;2023-03-11T00:53:20;0.80;99.90
2190;DHT22;1101;51.056;7.262;2023-03-11T00:55:48;0.80;99.90
2190;DHT22;1101;51.056;7.262;2023-03-11T00:58:17;0.90;99.90
2190;DHT22;1101;51.056;7.262;2023-03-11T01:00:45;0.90;99.90
2190;DHT22;1101;51.056;7.262;2023-03-11T01:03:12;0.90;99.90
2190;DHT22;1101;51.056;7.262;2023-03-11T01:05:40;0.90;99.90
2190;DHT22;1101;51.056;7.262;2023-03-11T01:08:08;0.90;99.90
2190;DHT22;1101;51.056;7.262;2023-03-11T01:10:36;0.90;99.90
2190;DHT22;1101;51.056;7.262;2023-03-11T01:13:04;0.90;99.90
2190;DHT22;1101;51.056;7.262;2023-03-11T01:15:35;0.90;99.90
2190;DHT22;1101;51.056;7.262;2023-03-11T01:18:04;0.80;99.90
2190;DHT22;1101;51.056;7.262;2023-03-11T01:20:32;0.90;99.90
2190;DHT22;1101;51.056;7.262;2023-03-11T01:23:00;0.90;99.90
2190;DHT22;1101;51.056;7.262;2023-03-11T01:25:28;0.90;99.90
2190;DHT22;1101;51.056;7.262;2023-03-11T01:27:56;0.80;99.90
2190;DHT22;1101;51.056;7.262;2023-03-11T01:30:24;0.80;99.90
2190;DHT22;1101;51.056;7.262;2023-03-11T01:32:55;0.80;99.90
2190;DHT22;1101;51.056;7.262;2023-03-11T01:35:25;0.80;99.90
2190;DHT22;1101;51.056;7.262;2023-03-11T01:37:54;0.80;99.90
2190;DHT22;1101;51.056;7.262;2023-03-11T01:40:26;0.80;99.90
2190;DHT22;1101;51.056;7.262;2023-03-11T01:42:55;0.80;99.90
2190;DHT22;1101;51.056;7.262;2023-03-11T01:45:32;0.80;99.90
2190;DHT22;1101;51.056;7.262;2023-03-11T01:48:01;0.80;99.90
2190;DHT22;1101;51.056;7.262;2023-03-11T01:50:33;0.80;99.90
2190;DHT22;1101;51.056;7.262;2023-03-11T01:53:03;0.80;99.90
2190;DHT22;1101;51.056;7.262;2023-03-11T01:55:31;0.80;99.90
2190;DHT22;1101;51.056;7.262;2023-03-11T01:58:02;0.80;99.90
2190;DHT22;1101;51.056;7.262;2023-03-11T02:00:32;0.80;99.90
2190;DHT22;1101;51.056;7.262;2023-03-11T02:03:06;0.70;99.90
2190;DHT22;1101;51.056;7.262;2023-03-11T02:05:35;0.70;99.90
2190;DHT22;1101;51.056;7.262;2023-03-11T02:08:05;0.70;99.90
2190;DHT22;1101;51.056;7.262;2023-03-11T02:10:36;0.80;99.90
2190;DHT22;1101;51.056;7.262;2023-03-11T02:13:05;0.80;99.90
2190;DHT22;1101;51.056;7.262;2023-03-11T02:15:33;0.90;99.90
2190;DHT22;1101;51.056;7.262;2023-03-11T02:18:04;0.80;99.90
2190;DHT22;1101;51.056;7.262;2023-03-11T02:20:39;0.80;99.90
2190;DHT22;1101;51.056;7.262;2023-03-11T02:23:12;0.80;99.90
2190;DHT22;1101;51.056;7.262;2023-03-11T02:25:45;0.80;99.90
2190;DHT22;1101;51.056;7.262;2023-03-11T02:28:17;0.70;99.90
2190;DHT22;1101;51.056;7.262;2023-03-11T02:30:47;0.80;99.90
2190;DHT22;1101;51.056;7.262;2023-03-11T02:33:15;0.80;99.90
2190;DHT22;1101;51.056;7.262;2023-03-11T02:35:45;0.70;99.90
2190;DHT22;1101;51.056;7.262;2023-03-11T02:38:12;0.80;99.90
2190;DHT22;1101;51.056;7.262;2023-03-11T02:40:46;0.80;99.90
2190;DHT22;1101;51.056;7.262;2023-03-11T02:43:19;0.80;99.90
2190;DHT22;1101;51.056;7.262;2023-03-11T02:45:49;0.80;99.90
2190;DHT22;1101;51.056;7.262;2023-03-11T02:48:18;0.80;99.90
2190;DHT22;1101;51.056;7.262;2023-03-11T02:50:46;0.90;99.90
2190;DHT22;1101;51.056;7.262;2023-03-11T02:53:14;0.90;99.90
2190;DHT22;1101;51.056;7.262;2023-03-11T02:55:42;0.90;99.90
2190;DHT22;1101;51.056;7.262;2023-03-11T02:58:10;0.90;99.90
2190;DHT22;1101;51.056;7.262;2023-03-11T03:00:39;0.90;99.90
2190;DHT22;1101;51.056;7.262;2023-03-11T03:03:07;0.90;99.90
2190;DHT22;1101;51.056;7.262;2023-03-11T03:05:36;0.90;99.90
2190;DHT22;1101;51.056;7.262;2023-03-11T03:08:03;0.90;99.90
2190;DHT22;1101;51.056;7.262;2023-03-11T03:10:31;0.90;99.90
2190;DHT22;1101;51.056;7.262;2023-03-11T03:12:59;0.90;99.90
2190;DHT22;1101;51.056;7.262;2023-03-11T03:15:27;0.90;99.90
2190;DHT22;1101;51.056;7.262;2023-03-11T03:17:57;0.90;99.90
2190;DHT22;1101;51.056;7.262;2023-03-11T03:20:24;0.90;99.90
2190;DHT22;1101;51.056;7.262;2023-03-11T03:22:53;0.80;99.90
2190;DHT22;1101;51.056;7.262;2023-03-11T03:25:21;0.80;99.90
2190;DHT22;1101;51.056;7.262;2023-03-11T03:27:49;0.90;99.90
2190;DHT22;1101;51.056;7.262;2023-03-11T03:30:17;0.80;99.90
2190;DHT22;1101;51.056;7.262;2023-03-11T03:32:44;0.90;99.90
2190;DHT22;1101;51.056;7.262;2023-03-11T03:35:14;0.80;99.90
2190;DHT22;1101;51.056;7.262;2023-03-11T03:37:41;0.80;99.90
2190;DHT22;1101;51.056;7.262;2023-03-11T03:40:12;0.80;99.90
2190;DHT22;1101;51.056;7.262;2023-03-11T03:42:39;0.80;99.90
2190;DHT22;1101;51.056;7.262;2023-03-11T03:45:09;0.70;99.90
2190;DHT22;1101;51.056;7.262;2023-03-11T03:47:37;0.70;99.90
2190;DHT22;1101;51.056;7.262;2023-03-11T03:50:06;0.70;99.90
2190;DHT22;1101;51.056;7.262;2023-03-11T03:52:36;0.60;99.90
2190;DHT22;1101;51.056;7.262;2023-03-11T03:55:05;0.60;99.90
2190;DHT22;1101;51.056;7.262;2023-03-11T03:57:33;0.60;99.90
2190;DHT22;1101;51.056;7.262;2023-03-11T04:00:01;0.50;99.90
2190;DHT22;1101;51.056;7.262;2023-03-11T04:02:29;0.50;99.90
2190;DHT22;1101;51.056;7.262;2023-03-11T04:04:57;0.50;99.90
2190;DHT22;1101;51.056;7.262;2023-03-11T04:07:25;0.50;99.90
2190;DHT22;1101;51.056;7.262;2023-03-11T04:09:54;0.50;99.90
2190;DHT22;1101;51.056;7.262;2023-03-11T04:12:22;0.50;99.90
2190;DHT22;1101;51.056;7.262;2023-03-11T04:14:50;0.40;99.90
2190;DHT22;1101;51.056;7.262;2023-03-11T04:17:17;0.40;99.90
2190;DHT22;1101;51.056;7.262;2023-03-11T04:19:45;0.40;99.90
2190;DHT22;1101;51.056;7.262;2023-03-11T04:22:13;0.40;99.90
2190;DHT22;1101;51.056;7.262;2023-03-11T04:24:41;0.40;99.90
2190;DHT22;1101;51.056;7.262;2023-03-11T04:27:10;0.40;99.90
2190;DHT22;1101;51.056;7.262;2023-03-11T04:29:38;0.30;99.90
2190;DHT22;1101;51.056;7.262;2023-03-11T04:32:06;0.30;99.90
2190;DHT22;1101;51.056;7.262;2023-03-11T04:34:34;0.30;99.90
2190;DHT22;1101;51.056;7.262;2023-03-11T04:37:02;0.30;99.90
2190;DHT22;1101;51.056;7.262;2023-03-11T04:39:29;0.30;99.90
2190;DHT22;1101;51.056;7.262;2023-03-11T04:41:57;0.20;99.90
2190;DHT22;1101;51.056;7.262;2023-03-11T04:44:28;0.20;99.90
2190;DHT22;1101;51.056;7.262;2023-03-11T04:46:56;0.20;99.90
2190;DHT22;1101;51.056;7.262;2023-03-11T04:49:23;0.20;99.90
2190;DHT22;1101;51.056;7.262;2023-03-11T04:51:51;0.20;99.90
2190;DHT22;1101;51.056;7.262;2023-03-11T04:54:19;0.20;99.90
2190;DHT22;1101;51.056;7.262;2023-03-11T04:56:47;0.20;99.90
2190;DHT22;1101;51.056;7.262;2023-03-11T04:59:14;0.20;99.90
2190;DHT22;1101;51.056;7.262;2023-03-11T05:01:43;0.20;99.90
2190;DHT22;1101;51.056;7.262;2023-03-11T05:04:11;0.20;99.90
2190;DHT22;1101;51.056;7.262;2023-03-11T05:06:39;0.20;99.90
2190;DHT22;1101;51.056;7.262;2023-03-11T05:09:07;0.20;99.90
2190;DHT22;1101;51.056;7.262;2023-03-11T05:11:34;0.20;99.90
2190;DHT22;1101;51.056;7.262;2023-03-11T05:14:02;0.20;99.90
2190;DHT22;1101;51.056;7.262;2023-03-11T05:16:30;0.20;99.90
2190;DHT22;1101;51.056;7.262;2023-03-11T05:18:59;0.20;99.90
2190;DHT22;1101;51.056;7.262;2023-03-11T05:21:27;0.20;99.90
2190;DHT22;1101;51.056;7.262;2023-03-11T05:23:55;0.20;99.90
2190;DHT22;1101;51.056;7.262;2023-03-11T05:26:22;0.20;99.90
2190;DHT22;1101;51.056;7.262;2023-03-11T05:28:51;0.20;99.90
2190;DHT22;1101;51.056;7.262;2023-03-11T05:31:19;0.20;99.90
2190;DHT22;1101;51.056;7.262;2023-03-11T05:33:46;0.20;99.90
2190;DHT22;1101;51.056;7.262;2023-03-11T05:36:15;0.20;99.90
2190;DHT22;1101;51.056;7.262;2023-03-11T05:38:43;0.10;99.90
2190;DHT22;1101;51.056;7.262;2023-03-11T05:41:11;0.10;99.90
2190;DHT22;1101;51.056;7.262;2023-03-11T05:43:39;0.10;99.90
2190;DHT22;1101;51.056;7.262;2023-03-11T05:46:06;0.00;99.90
2190;DHT22;1101;51.056;7.262;2023-03-11T05:48:35;0.00;99.90
2190;DHT22;1101;51.056;7.262;2023-03-11T05:51:05;0.00;99.90
2190;DHT22;1101;51.056;7.262;2023-03-11T05:53:35;0.00;99.90
2190;DHT22;1101;51.056;7.262;2023-03-11T05:56:04;0.00;99.90
2190;DHT22;1101;51.056;7.262;2023-03-11T05:58:32;0.00;99.90
2190;DHT22;1101;51.056;7.262;2023-03-11T06:01:00;-0.10;99.90
2190;DHT22;1101;51.056;7.262;2023-03-11T06:03:27;0.00;99.90
2190;DHT22;1101;51.056;7.262;2023-03-11T06:05:55;-0.10;99.90
2190;DHT22;1101;51.056;7.262;2023-03-11T06:08:23;-0.10;99.90
2190;DHT22;1101;51.056;7.262;2023-03-11T06:10:52;-0.10;99.90
2190;DHT22;1101;51.056;7.262;2023-03-11T06:13:27;-0.10;99.90
2190;DHT22;1101;51.056;7.262;2023-03-11T06:15:54;-0.10;99.90
2190;DHT22;1101;51.056;7.262;2023-03-11T06:18:22;-0.20;99.90
2190;DHT22;1101;51.056;7.262;2023-03-11T06:20:51;-0.10;99.90
2190;DHT22;1101;51.056;7.262;2023-03-11T06:23:20;-0.20;99.90
2190;DHT22;1101;51.056;7.262;2023-03-11T06:25:55;-0.20;99.90
2190;DHT22;1101;51.056;7.262;2023-03-11T06:28:24;-0.20;99.90
2190;DHT22;1101;51.056;7.262;2023-03-11T06:30:52;-0.10;99.90
2190;DHT22;1101;51.056;7.262;2023-03-11T06:33:22;-0.10;99.90
2190;DHT22;1101;51.056;7.262;2023-03-11T06:35:57;-0.10;99.90
2190;DHT22;1101;51.056;7.262;2023-03-11T06:38:25;0.00;99.90
2190;DHT22;1101;51.056;7.262;2023-03-11T06:40:57;0.00;99.90
2190;DHT22;1101;51.056;7.262;2023-03-11T06:43:25;0.00;99.90
2190;DHT22;1101;51.056;7.262;2023-03-11T06:45:52;0.00;99.90
2190;DHT22;1101;51.056;7.262;2023-03-11T06:48:20;0.00;99.90
2190;DHT22;1101;51.056;7.262;2023-03-11T06:50:54;0.10;99.90
2190;DHT22;1101;51.056;7.262;2023-03-11T06:53:23;0.10;99.90
2190;DHT22;1101;51.056;7.262;2023-03-11T06:55:59;0.10;99.90
2190;DHT22;1101;51.056;7.262;2023-03-11T06:58:28;0.10;99.90
2190;DHT22;1101;51.056;7.262;2023-03-11T07:00:59;0.10;99.90
2190;DHT22;1101;51.056;7.262;2023-03-11T07:03:27;0.10;99.90
2190;DHT22;1101;51.056;7.262;2023-03-11T07:05:56;0.10;99.90
2190;DHT22;1101;51.056;7.262;2023-03-11T07:08:24;0.10;99.90
2190;DHT22;1101;51.056;7.262;2023-03-11T07:11:04;0.10;99.90
2190;DHT22;1101;51.056;7.262;2023-03-11T07:13:33;0.20;99.90
2190;DHT22;1101;51.056;7.262;2023-03-11T07:16:03;0.30;99.90
2190;DHT22;1101;51.056;7.262;2023-03-11T07:18:31;0.30;99.90
2190;DHT22;1101;51.056;7.262;2023-03-11T07:21:00;0.40;99.90
2190;DHT22;1101;51.056;7.262;2023-03-11T07:23:28;0.50;99.90
2190;DHT22;1101;51.056;7.262;2023-03-11T07:25:56;0.60;99.90
2190;DHT22;1101;51.056;7.262;2023-03-11T07:28:26;0.60;99.90
2190;DHT22;1101;51.056;7.262;2023-03-11T07:30:54;0.70;99.90
2190;DHT22;1101;51.056;7.262;2023-03-11T07:33:22;0.90;99.90
2190;DHT22;1101;51.056;7.262;2023-03-11T07:35:51;0.90;99.90
2190;DHT22;1101;51.056;7.262;2023-03-11T07:38:18;1.00;99.90
2190;DHT22;1101;51.056;7.262;2023-03-11T07:40:46;1.00;99.90
2190;DHT22;1101;51.056;7.262;2023-03-11T07:43:14;1.10;99.90
2190;DHT22;1101;51.056;7.262;2023-03-11T07:45:43;1.10;99.90
2190;DHT22;1101;51.056;7.262;2023-03-11T07:48:11;1.20;99.90
2190;DHT22;1101;51.056;7.262;2023-03-11T07:50:38;1.20;99.90
2190;DHT22;1101;51.056;7.262;2023-03-11T07:53:06;1.30;99.90
2190;DHT22;1101;51.056;7.262;2023-03-11T07:55:34;1.30;99.90
2190;DHT22;1101;51.056;7.262;2023-03-11T07:58:02;1.40;99.90
2190;DHT22;1101;51.056;7.262;2023-03-11T08:00:30;1.40;99.90
2190;DHT22;1101;51.056;7.262;2023-03-11T08:02:59;1.40;99.90
2190;DHT22;1101;51.056;7.262;2023-03-11T08:05:27;1.40;99.90
2190;DHT22;1101;51.056;7.262;2023-03-11T08:07:54;1.40;99.90
2190;DHT22;1101;51.056;7.262;2023-03-11T08:10:22;1.40;99.90
2190;DHT22;1101;51.056;7.262;2023-03-11T08:12:50;1.50;99.90
2190;DHT22;1101;51.056;7.262;2023-03-11T08:15:18;1.50;99.90
2190;DHT22;1101;51.056;7.262;2023-03-11T08:17:45;1.60;99.90
2190;DHT22;1101;51.056;7.262;2023-03-11T08:20:15;1.70;99.90
2190;DHT22;1101;51.056;7.262;2023-03-11T08:22:43;1.80;99.90
2190;DHT22;1101;51.056;7.262;2023-03-11T08:25:23;1.80;99.90
2190;DHT22;1101;51.056;7.262;2023-03-11T08:27:51;1.90;99.90
2190;DHT22;1101;51.056;7.262;2023-03-11T08:30:19;1.90;99.90
2190;DHT22;1101;51.056;7.262;2023-03-11T08:32:48;1.90;99.90
2190;DHT22;1101;51.056;7.262;2023-03-11T08:35:17;2.00;99.90
2190;DHT22;1101;51.056;7.262;2023-03-11T08:37:45;2.00;99.90
2190;DHT22;1101;51.056;7.262;2023-03-11T08:40:13;2.10;99.90
2190;DHT22;1101;51.056;7.262;2023-03-11T08:42:41;2.10;99.90
2190;DHT22;1101;51.056;7.262;2023-03-11T08:45:09;2.10;99.90
2190;DHT22;1101;51.056;7.262;2023-03-11T08:47:38;2.20;99.90
2190;DHT22;1101;51.056;7.262;2023-03-11T08:50:08;2.20;99.90
2190;DHT22;1101;51.056;7.262;2023-03-11T08:52:37;2.30;99.90
2190;DHT22;1101;51.056;7.262;2023-03-11T08:55:06;2.40;99.90
2190;DHT22;1101;51.056;7.262;2023-03-11T08:57:36;2.50;99.90
2190;DHT22;1101;51.056;7.262;2023-03-11T09:00:05;2.50;99.90
2190;DHT22;1101;51.056;7.262;2023-03-11T09:02:36;2.40;99.90
2190;DHT22;1101;51.056;7.262;2023-03-11T09:05:05;2.40;99.90
2190;DHT22;1101;51.056;7.262;2023-03-11T09:07:32;2.40;99.90
2190;DHT22;1101;51.056;7.262;2023-03-11T09:10:02;2.40;99.90
2190;DHT22;1101;51.056;7.262;2023-03-11T09:12:30;2.40;99.90
2190;DHT22;1101;51.056;7.262;2023-03-11T09:14:58;2.50;99.90
2190;DHT22;1101;51.056;7.262;2023-03-11T09:17:25;2.60;99.90
2190;DHT22;1101;51.056;7.262;2023-03-11T09:19:53;2.60;99.90
2190;DHT22;1101;51.056;7.262;2023-03-11T09:22:21;2.60;99.90
2190;DHT22;1101;51.056;7.262;2023-03-11T09:24:49;2.60;99.90
2190;DHT22;1101;51.056;7.262;2023-03-11T09:27:18;2.60;99.90
2190;DHT22;1101;51.056;7.262;2023-03-11T09:29:45;2.50;99.90
2190;DHT22;1101;51.056;7.262;2023-03-11T09:32:14;2.80;99.90
2190;DHT22;1101;51.056;7.262;2023-03-11T09:34:42;2.80;99.90
2190;DHT22;1101;51.056;7.262;2023-03-11T09:37:09;2.80;99.90
2190;DHT22;1101;51.056;7.262;2023-03-11T09:39:37;2.80;99.90
2190;DHT22;1101;51.056;7.262;2023-03-11T09:42:16;2.70;99.90
2190;DHT22;1101;51.056;7.262;2023-03-11T09:44:52;2.80;99.90
2190;DHT22;1101;51.056;7.262;2023-03-11T09:47:35;2.90;99.90
2190;DHT22;1101;51.056;7.262;2023-03-11T09:50:19;2.90;99.90
2190;DHT22;1101;51.056;7.262;2023-03-11T09:52:55;2.90;99.90
2190;DHT22;1101;51.056;7.262;2023-03-11T09:55:37;2.80;99.90
2190;DHT22;1101;51.056;7.262;2023-03-11T09:58:12;2.80;99.90
2190;DHT22;1101;51.056;7.262;2023-03-11T10:00:43;2.80;99.90
2190;DHT22;1101;51.056;7.262;2023-03-11T10:03:21;2.70;99.90
2190;DHT22;1101;51.056;7.262;2023-03-11T10:05:54;2.80;99.90
2190;DHT22;1101;51.056;7.262;2023-03-11T10:08:29;2.80;99.90
2190;DHT22;1101;51.056;7.262;2023-03-11T10:11:04;2.80;99.90
2190;DHT22;1101;51.056;7.262;2023-03-11T10:13:38;2.90;99.90
2190;DHT22;1101;51.056;7.262;2023-03-11T10:16:17;3.00;99.90
2190;DHT22;1101;51.056;7.262;2023-03-11T10:18:53;3.00;99.90
2190;DHT22;1101;51.056;7.262;2023-03-11T10:21:35;3.00;99.90
2190;DHT22;1101;51.056;7.262;2023-03-11T10:24:16;3.00;99.90
2190;DHT22;1101;51.056;7.262;2023-03-11T10:26:48;3.10;99.90
2190;DHT22;1101;51.056;7.262;2023-03-11T10:29:21;3.10;99.90
2190;DHT22;1101;51.056;7.262;2023-03-11T10:31:55;3.20;99.90
2190;DHT22;1101;51.056;7.262;2023-03-11T10:34:27;3.20;99.90
2190;DHT22;1101;51.056;7.262;2023-03-11T10:37:01;3.30;99.90
2190;DHT22;1101;51.056;7.262;2023-03-11T10:39:31;3.30;99.90
2190;DHT22;1101;51.056;7.262;2023-03-11T10:42:01;3.40;99.90
2190;DHT22;1101;51.056;7.262;2023-03-11T10:44:32;3.40;99.90
2190;DHT22;1101;51.056;7.262;2023-03-11T10:47:02;3.40;99.90
2190;DHT22;1101;51.056;7.262;2023-03-11T10:49:30;3.40;99.90
2190;DHT22;1101;51.056;7.262;2023-03-11T10:51:58;3.40;99.90
2190;DHT22;1101;51.056;7.262;2023-03-11T10:54:29;3.60;99.90
2190;DHT22;1101;51.056;7.262;2023-03-11T10:56:58;3.70;99.90
2190;DHT22;1101;51.056;7.262;2023-03-11T10:59:29;3.90;99.90
2190;DHT22;1101;51.056;7.262;2023-03-11T11:01:59;4.00;99.90
2190;DHT22;1101;51.056;7.262;2023-03-11T11:04:35;4.00;99.90
2190;DHT22;1101;51.056;7.262;2023-03-11T11:07:21;4.00;99.90
2190;DHT22;1101;51.056;7.262;2023-03-11T11:10:13;4.10;99.90
2190;DHT22;1101;51.056;7.262;2023-03-11T11:12:52;4.00;99.90
2190;DHT22;1101;51.056;7.262;2023-03-11T11:15:23;4.00;99.90
2190;DHT22;1101;51.056;7.262;2023-03-11T11:17:52;3.90;99.90
2190;DHT22;1101;51.056;7.262;2023-03-11T11:20:24;3.90;99.90
2190;DHT22;1101;51.056;7.262;2023-03-11T11:22:54;3.90;99.90
2190;DHT22;1101;51.056;7.262;2023-03-11T11:25:25;3.90;99.90
2190;DHT22;1101;51.056;7.262;2023-03-11T11:27:54;3.90;99.90
2190;DHT22;1101;51.056;7.262;2023-03-11T11:30:24;4.00;99.90
2190;DHT22;1101;51.056;7.262;2023-03-11T11:32:52;4.10;99.90
2190;DHT22;1101;51.056;7.262;2023-03-11T11:35:23;4.20;99.90
2190;DHT22;1101;51.056;7.262;2023-03-11T11:37:52;4.20;99.90
2190;DHT22;1101;51.056;7.262;2023-03-11T11:40:25;4.30;99.90
2190;DHT22;1101;51.056;7.262;2023-03-11T11:42:56;4.30;99.90
2190;DHT22;1101;51.056;7.262;2023-03-11T11:45:29;4.30;99.90
2190;DHT22;1101;51.056;7.262;2023-03-11T11:48:02;4.30;99.90
2190;DHT22;1101;51.056;7.262;2023-03-11T11:50:33;4.30;99.90
2190;DHT22;1101;51.056;7.262;2023-03-11T11:53:10;4.30;99.90
2190;DHT22;1101;51.056;7.262;2023-03-11T11:55:45;4.30;99.90
2190;DHT22;1101;51.056;7.262;2023-03-11T11:58:14;4.30;99.90
2190;DHT22;1101;51.056;7.262;2023-03-11T12:00:59;4.40;99.90
2190;DHT22;1101;51.056;7.262;2023-03-11T12:03:40;4.40;99.90
2190;DHT22;1101;51.056;7.262;2023-03-11T12:06:19;4.30;99.90
2190;DHT22;1101;51.056;7.262;2023-03-11T12:08:54;4.40;99.90
2190;DHT22;1101;51.056;7.262;2023-03-11T12:11:32;4.50;99.90
2190;DHT22;1101;51.056;7.262;2023-03-11T12:14:06;4.60;99.90
2190;DHT22;1101;51.056;7.262;2023-03-11T12:16:41;4.70;99.90
2190;DHT22;1101;51.056;7.262;2023-03-11T12:19:17;4.70;99.90
2190;DHT22;1101;51.056;7.262;2023-03-11T12:24:54;4.70;99.90
2190;DHT22;1101;51.056;7.262;2023-03-11T12:27:28;4.60;99.90
2190;DHT22;1101;51.056;7.262;2023-03-11T12:30:00;4.70;99.90
2190;DHT22;1101;51.056;7.262;2023-03-11T12:32:32;4.70;99.90
2190;DHT22;1101;51.056;7.262;2023-03-11T12:35:02;4.70;99.90
2190;DHT22;1101;51.056;7.262;2023-03-11T12:37:37;4.70;99.90
2190;DHT22;1101;51.056;7.262;2023-03-11T12:43:23;4.60;99.90
2190;DHT22;1101;51.056;7.262;2023-03-11T12:45:52;4.70;99.90
2190;DHT22;1101;51.056;7.262;2023-03-11T12:48:30;4.80;99.90
2190;DHT22;1101;51.056;7.262;2023-03-11T12:50:59;5.00;99.90
2190;DHT22;1101;51.056;7.262;2023-03-11T12:53:46;5.00;99.90
2190;DHT22;1101;51.056;7.262;2023-03-11T12:56:24;5.10;99.90
2190;DHT22;1101;51.056;7.262;2023-03-11T12:59:08;5.10;99.90
2190;DHT22;1101;51.056;7.262;2023-03-11T13:01:57;5.10;99.90
2190;DHT22;1101;51.056;7.262;2023-03-11T13:04:37;5.20;99.90
2190;DHT22;1101;51.056;7.262;2023-03-11T13:07:34;5.20;99.90
2190;DHT22;1101;51.056;7.262;2023-03-11T13:13:21;5.20;99.90
2190;DHT22;1101;51.056;7.262;2023-03-11T13:15:50;5.30;99.90
2190;DHT22;1101;51.056;7.262;2023-03-11T13:18:21;5.40;99.90
2190;DHT22;1101;51.056;7.262;2023-03-11T13:20:52;5.40;99.90
2190;DHT22;1101;51.056;7.262;2023-03-11T13:23:29;5.40;99.90
2190;DHT22;1101;51.056;7.262;2023-03-11T13:32:27;5.60;99.90
2190;DHT22;1101;51.056;7.262;2023-03-11T13:35:11;5.60;99.90
2190;DHT22;1101;51.056;7.262;2023-03-11T13:37:46;5.60;99.90
2190;DHT22;1101;51.056;7.262;2023-03-11T13:40:27;5.60;99.90
2190;DHT22;1101;51.056;7.262;2023-03-11T13:43:00;5.70;99.90
2190;DHT22;1101;51.056;7.262;2023-03-11T13:45:32;5.70;99.90
2190;DHT22;1101;51.056;7.262;2023-03-11T13:48:03;5.80;99.90
2190;DHT22;1101;51.056;7.262;2023-03-11T13:50:36;5.90;99.90
2190;DHT22;1101;51.056;7.262;2023-03-11T13:53:08;6.00;99.90
2190;DHT22;1101;51.056;7.262;2023-03-11T13:55:38;6.10;99.90
2190;DHT22;1101;51.056;7.262;2023-03-11T13:58:14;6.10;99.90
2190;DHT22;1101;51.056;7.262;2023-03-11T14:00:51;6.00;99.90
2190;DHT22;1101;51.056;7.262;2023-03-11T14:03:20;5.90;99.50
2190;DHT22;1101;51.056;7.262;2023-03-11T14:05:56;5.80;99.50
2190;DHT22;1101;51.056;7.262;2023-03-11T14:08:27;5.70;99.40
2190;DHT22;1101;51.056;7.262;2023-03-11T14:10:56;5.70;99.30
2190;DHT22;1101;51.056;7.262;2023-03-11T14:13:25;5.60;99.30
2190;DHT22;1101;51.056;7.262;2023-03-11T14:16:02;5.60;99.50
2190;DHT22;1101;51.056;7.262;2023-03-11T14:18:33;5.60;99.40
2190;DHT22;1101;51.056;7.262;2023-03-11T14:21:03;5.60;99.40
2190;DHT22;1101;51.056;7.262;2023-03-11T14:23:34;5.60;99.40
2190;DHT22;1101;51.056;7.262;2023-03-11T14:26:05;5.60;99.40
2190;DHT22;1101;51.056;7.262;2023-03-11T14:28:36;5.60;99.50
2190;DHT22;1101;51.056;7.262;2023-03-11T14:31:23;5.50;99.50
2190;DHT22;1101;51.056;7.262;2023-03-11T14:33:56;5.60;99.60
2190;DHT22;1101;51.056;7.262;2023-03-11T14:36:31;5.60;99.70
2190;DHT22;1101;51.056;7.262;2023-03-11T14:39:21;5.70;99.80
2190;DHT22;1101;51.056;7.262;2023-03-11T14:41:50;5.80;99.80
2190;DHT22;1101;51.056;7.262;2023-03-11T14:44:19;5.90;99.80
2190;DHT22;1101;51.056;7.262;2023-03-11T14:46:51;5.90;99.70
2190;DHT22;1101;51.056;7.262;2023-03-11T14:49:21;6.00;99.40
2190;DHT22;1101;51.056;7.262;2023-03-11T14:51:54;6.00;99.80
2190;DHT22;1101;51.056;7.262;2023-03-11T14:54:25;6.10;99.90
2190;DHT22;1101;51.056;7.262;2023-03-11T14:56:58;6.20;99.80
2190;DHT22;1101;51.056;7.262;2023-03-11T14:59:30;6.20;99.90
2190;DHT22;1101;51.056;7.262;2023-03-11T15:02:10;6.30;99.80
2190;DHT22;1101;51.056;7.262;2023-03-11T15:04:46;6.30;99.30
2190;DHT22;1101;51.056;7.262;2023-03-11T15:07:14;6.30;99.60
2190;DHT22;1101;51.056;7.262;2023-03-11T15:09:42;6.30;99.70
2190;DHT22;1101;51.056;7.262;2023-03-11T15:12:29;6.40;99.80
2190;DHT22;1101;51.056;7.262;2023-03-11T15:14:57;6.50;99.80
2190;DHT22;1101;51.056;7.262;2023-03-11T15:17:27;6.50;99.40
2190;DHT22;1101;51.056;7.262;2023-03-11T15:20:23;6.50;99.70
2190;DHT22;1101;51.056;7.262;2023-03-11T15:22:54;6.40;99.70
2190;DHT22;1101;51.056;7.262;2023-03-11T15:25:23;6.50;99.60
2190;DHT22;1101;51.056;7.262;2023-03-11T15:27:51;6.50;99.50
2190;DHT22;1101;51.056;7.262;2023-03-11T15:30:21;6.50;99.00
2190;DHT22;1101;51.056;7.262;2023-03-11T15:32:51;6.40;98.30
2190;DHT22;1101;51.056;7.262;2023-03-11T15:35:21;6.30;98.00
2190;DHT22;1101;51.056;7.262;2023-03-11T15:40:37;6.20;98.00
2190;DHT22;1101;51.056;7.262;2023-03-11T15:43:21;6.10;98.20
2190;DHT22;1101;51.056;7.262;2023-03-11T15:45:51;6.10;98.30
2190;DHT22;1101;51.056;7.262;2023-03-11T15:48:22;6.00;98.40
2190;DHT22;1101;51.056;7.262;2023-03-11T15:50:51;5.90;98.40
2190;DHT22;1101;51.056;7.262;2023-03-11T15:53:21;5.90;98.40
2190;DHT22;1101;51.056;7.262;2023-03-11T15:55:50;5.90;98.40
2190;DHT22;1101;51.056;7.262;2023-03-11T15:58:19;5.80;98.30
2190;DHT22;1101;51.056;7.262;2023-03-11T16:00:49;5.80;98.30
2190;DHT22;1101;51.056;7.262;2023-03-11T16:03:17;5.70;98.10
2190;DHT22;1101;51.056;7.262;2023-03-11T16:05:47;5.60;98.10
2190;DHT22;1101;51.056;7.262;2023-03-11T16:08:15;5.60;98.30
2190;DHT22;1101;51.056;7.262;2023-03-11T16:10:43;5.60;98.30
2190;DHT22;1101;51.056;7.262;2023-03-11T16:13:11;5.50;98.20
2190;DHT22;1101;51.056;7.262;2023-03-11T16:15:40;5.60;98.50
2190;DHT22;1101;51.056;7.262;2023-03-11T16:18:08;5.50;98.50
2190;DHT22;1101;51.056;7.262;2023-03-11T16:20:39;5.50;98.50
2190;DHT22;1101;51.056;7.262;2023-03-11T16:23:13;5.50;98.50
2190;DHT22;1101;51.056;7.262;2023-03-11T16:25:42;5.40;98.60
2190;DHT22;1101;51.056;7.262;2023-03-11T16:28:12;5.40;98.70
2190;DHT22;1101;51.056;7.262;2023-03-11T16:30:40;5.30;98.80
2190;DHT22;1101;51.056;7.262;2023-03-11T16:33:10;5.30;98.90
2190;DHT22;1101;51.056;7.262;2023-03-11T16:35:37;5.30;98.90
2190;DHT22;1101;51.056;7.262;2023-03-11T16:38:06;5.30;98.90
2190;DHT22;1101;51.056;7.262;2023-03-11T16:40:35;5.20;98.80
2190;DHT22;1101;51.056;7.262;2023-03-11T16:43:04;5.20;98.90
2190;DHT22;1101;51.056;7.262;2023-03-11T16:45:32;5.10;99.00
2190;DHT22;1101;51.056;7.262;2023-03-11T16:48:00;5.10;99.00
2190;DHT22;1101;51.056;7.262;2023-03-11T16:50:28;5.00;99.00
2190;DHT22;1101;51.056;7.262;2023-03-11T16:52:57;5.00;99.10
2190;DHT22;1101;51.056;7.262;2023-03-11T16:55:26;4.90;99.10
2190;DHT22;1101;51.056;7.262;2023-03-11T16:57:55;4.80;99.10